createdAt,value
2022-08-01T07:15:15.331Z,27.90
2022-08-01T07:17:43.595Z,28.00
2022-08-01T07:20:14.038Z,28.60
2022-08-01T07:22:44.000Z,29.20
2022-08-01T07:25:16.203Z,29.50
2022-08-01T07:27:43.646Z,29.80
2022-08-01T07:30:11.152Z,29.80
2022-08-01T07:32:38.623Z,29.80
2022-08-01T07:35:06.221Z,29.60
2022-08-01T07:37:48.359Z,29.60
2022-08-01T07:40:18.755Z,29.20
2022-08-01T07:42:46.727Z,28.60
2022-08-01T07:45:14.889Z,28.20
2022-08-01T07:47:42.279Z,27.80
2022-08-01T07:50:10.180Z,27.50
2022-08-01T07:52:37.308Z,27.20
2022-08-01T07:55:04.976Z,26.90
2022-08-01T07:57:32.632Z,26.80
2022-08-01T08:00:00.989Z,26.60
2022-08-01T08:02:28.214Z,26.50
2022-08-01T08:04:55.421Z,26.30
2022-08-01T08:07:22.679Z,26.10
2022-08-01T08:09:51.091Z,25.90
2022-08-01T08:12:18.750Z,25.80
2022-08-01T08:14:56.641Z,25.70
2022-08-01T08:17:25.325Z,25.70
2022-08-01T08:19:52.526Z,25.60
2022-08-01T08:22:19.899Z,25.50
2022-08-01T08:24:47.250Z,25.50
2022-08-01T08:27:15.842Z,25.50
2022-08-01T08:29:43.196Z,25.50
2022-08-01T08:32:10.959Z,25.70
2022-08-01T08:34:38.373Z,25.80
2022-08-01T08:37:05.953Z,26.00
2022-08-01T08:39:41.551Z,25.90
2022-08-01T08:42:14.146Z,25.80
2022-08-01T08:44:43.748Z,25.80
2022-08-01T08:47:19.399Z,25.90
2022-08-01T08:49:49.475Z,25.90
2022-08-01T08:52:19.860Z,26.00
2022-08-01T08:54:48.907Z,26.10
2022-08-01T08:57:17.123Z,26.00
2022-08-01T08:59:44.805Z,26.10
2022-08-01T09:02:13.549Z,26.10
2022-08-01T09:04:41.474Z,26.10
2022-08-01T09:07:09.841Z,26.10
2022-08-01T09:09:41.867Z,26.00
2022-08-01T09:12:10.216Z,26.20
2022-08-01T09:14:46.123Z,26.20
2022-08-01T09:17:14.023Z,26.30
2022-08-01T09:19:46.272Z,26.40
2022-08-01T09:22:19.104Z,26.40
2022-08-01T09:25:05.150Z,26.50
2022-08-01T09:27:33.067Z,26.70
2022-08-01T09:30:23.798Z,26.80
2022-08-01T09:32:58.885Z,26.90
2022-08-01T09:35:31.109Z,27.10
2022-08-01T09:38:18.676Z,27.10
2022-08-01T09:40:52.814Z,27.20
2022-08-01T09:43:20.325Z,27.30
2022-08-01T09:45:50.717Z,27.30
2022-08-01T09:48:22.826Z,27.30
2022-08-01T09:51:03.893Z,27.20
2022-08-01T09:53:52.671Z,27.20
2022-08-01T09:56:23.234Z,27.20
2022-08-01T09:59:02.386Z,27.20
2022-08-01T10:01:51.233Z,27.30
2022-08-01T10:04:22.025Z,27.20
2022-08-01T10:06:53.682Z,27.20
2022-08-01T10:09:40.726Z,27.10
2022-08-01T10:12:15.713Z,27.10
2022-08-01T10:14:45.994Z,27.10
2022-08-01T10:17:18.542Z,27.00
2022-08-01T10:19:50.594Z,27.10
2022-08-01T10:22:21.100Z,27.10
2022-08-01T10:24:49.697Z,27.10
2022-08-01T10:27:24.696Z,27.10
2022-08-01T10:30:19.124Z,27.10
2022-08-01T10:32:55.569Z,27.00
2022-08-01T10:35:45.498Z,27.00
2022-08-01T10:38:13.914Z,26.90
2022-08-01T10:40:45.493Z,26.80
2022-08-01T10:43:21.450Z,26.80
2022-08-01T10:45:50.601Z,26.90
2022-08-01T10:48:32.469Z,26.90
2022-08-01T10:51:03.268Z,27.00
2022-08-01T10:53:31.832Z,27.10
2022-08-01T10:56:13.218Z,27.10
2022-08-01T10:58:47.108Z,27.20
2022-08-01T11:01:16.276Z,27.20
2022-08-01T11:04:06.994Z,27.30
2022-08-01T11:06:34.236Z,27.30
2022-08-01T11:09:16.426Z,27.30
2022-08-01T11:12:23.569Z,27.20
2022-08-01T11:15:02.980Z,27.20
2022-08-01T11:17:48.469Z,27.30
2022-08-01T11:20:21.447Z,27.30
2022-08-01T11:23:03.569Z,27.30
2022-08-01T11:26:06.724Z,27.30
2022-08-01T11:28:36.597Z,27.30
2022-08-01T11:31:10.923Z,27.30
2022-08-01T11:33:48.681Z,27.30
2022-08-01T11:36:55.992Z,27.30
2022-08-01T11:39:15.648Z,27.50
2022-08-01T11:41:44.942Z,27.50
2022-08-01T11:44:15.242Z,27.40
2022-08-01T11:46:49.829Z,27.50
2022-08-01T11:49:48.683Z,27.50
2022-08-01T11:52:27.227Z,27.50
2022-08-01T11:54:59.612Z,27.50
2022-08-01T11:57:34.247Z,27.50
2022-08-01T12:00:15.010Z,27.60
2022-08-01T12:02:45.360Z,27.60
2022-08-01T12:05:24.715Z,27.80
2022-08-01T12:07:53.635Z,27.80
2022-08-01T12:10:26.616Z,28.00
2022-08-01T12:13:00.888Z,28.00
2022-08-01T12:15:33.127Z,27.90
2022-08-01T12:18:02.586Z,27.90
2022-08-01T12:20:35.664Z,27.90
2022-08-01T12:23:08.430Z,28.00
2022-08-01T12:25:36.703Z,28.10
2022-08-01T12:28:08.746Z,27.70
2022-08-01T12:30:38.862Z,27.50
2022-08-01T12:33:08.625Z,27.60
2022-08-01T12:35:37.533Z,27.80
2022-08-01T12:38:19.613Z,27.70
2022-08-01T12:40:53.396Z,27.90
2022-08-01T12:43:27.816Z,27.90
2022-08-01T12:45:59.406Z,28.10
2022-08-01T12:48:27.459Z,28.30
2022-08-01T12:50:58.538Z,28.30
2022-08-01T12:53:27.012Z,28.50
2022-08-01T12:56:07.400Z,28.60
2022-08-01T12:58:35.032Z,28.70
2022-08-01T13:01:07.472Z,28.40
2022-08-01T13:03:35.274Z,28.30
2022-08-01T13:06:10.354Z,28.20
2022-08-01T13:08:39.454Z,28.20
2022-08-01T13:11:10.998Z,28.20
2022-08-01T13:13:52.153Z,28.10
2022-08-01T13:16:30.935Z,27.90
2022-08-01T13:19:06.974Z,28.10
2022-08-01T13:21:54.107Z,28.10
2022-08-01T13:24:29.878Z,28.30
2022-08-01T13:27:04.421Z,28.40
2022-08-01T13:29:42.254Z,28.30
2022-08-01T13:32:29.455Z,28.20
2022-08-01T13:35:09.359Z,28.00
2022-08-01T13:37:41.525Z,27.80
2022-08-01T13:40:11.246Z,27.60
2022-08-01T13:42:39.282Z,27.40
2022-08-01T13:45:14.030Z,27.40
2022-08-01T13:48:03.779Z,27.40
2022-08-01T13:50:31.556Z,27.40
2022-08-01T13:52:58.730Z,27.20
2022-08-01T13:55:26.629Z,27.10
2022-08-01T13:57:55.541Z,27.10
2022-08-01T14:00:22.734Z,27.30
2022-08-01T14:02:50.058Z,27.30
2022-08-01T14:05:17.426Z,27.40
2022-08-01T14:07:45.702Z,27.50
2022-08-01T14:10:19.789Z,27.60
2022-08-01T14:12:50.984Z,27.80
2022-08-01T14:15:38.048Z,27.90
2022-08-01T14:18:10.826Z,28.00
2022-08-01T14:20:39.422Z,28.10
2022-08-01T14:23:08.755Z,28.10
2022-08-01T14:26:00.214Z,28.00
2022-08-01T14:28:29.174Z,28.00
2022-08-01T14:30:58.181Z,28.00
2022-08-01T14:33:25.761Z,27.70
2022-08-01T14:36:06.728Z,27.70
2022-08-01T14:38:40.331Z,27.60
2022-08-01T14:41:07.561Z,27.40
2022-08-01T14:43:34.804Z,27.30
2022-08-01T14:46:03.888Z,27.30
2022-08-01T14:48:31.486Z,27.20
2022-08-01T14:51:01.440Z,27.20
2022-08-01T14:53:28.656Z,27.20
2022-08-01T14:55:56.014Z,27.20
2022-08-01T14:58:23.510Z,27.20
2022-08-01T15:00:54.295Z,27.00
2022-08-01T15:03:24.063Z,26.90
2022-08-01T15:05:51.180Z,26.80
2022-08-01T15:08:18.321Z,26.70
2022-08-01T15:10:45.695Z,26.70
2022-08-01T15:13:12.901Z,26.60
2022-08-01T15:15:40.075Z,26.60
2022-08-01T15:18:07.462Z,26.40
2022-08-01T15:20:34.543Z,26.40
2022-08-01T15:23:01.722Z,26.40
2022-08-01T15:25:41.236Z,26.40
2022-08-01T15:28:10.766Z,26.50
2022-08-01T15:30:38.135Z,26.50
2022-08-01T15:33:15.565Z,26.40
2022-08-01T15:35:43.657Z,26.50
2022-08-01T15:38:10.836Z,26.50
2022-08-01T15:40:38.546Z,26.50
2022-08-01T15:43:05.886Z,26.50
2022-08-01T15:45:49.402Z,26.40
2022-08-01T15:48:17.865Z,26.30
2022-08-01T15:50:45.506Z,26.30
2022-08-01T15:53:12.743Z,26.30
2022-08-01T15:55:40.527Z,26.10
2022-08-01T15:58:08.180Z,26.10
2022-08-01T16:00:39.581Z,26.00
2022-08-01T16:03:08.157Z,26.00
2022-08-01T16:05:40.985Z,26.00
2022-08-01T16:08:14.209Z,26.00
2022-08-01T16:10:41.630Z,25.90
2022-08-01T16:13:09.522Z,25.80
2022-08-01T16:15:42.574Z,25.80
2022-08-01T16:18:13.103Z,25.80
2022-08-01T16:20:45.478Z,25.80
2022-08-01T16:23:16.662Z,25.80
2022-08-01T16:25:44.867Z,25.60
2022-08-01T16:28:12.489Z,25.70
2022-08-01T16:30:40.447Z,25.60
2022-08-01T16:33:23.261Z,25.60
2022-08-01T16:36:03.816Z,25.60
2022-08-01T16:38:31.168Z,25.60
2022-08-01T16:40:58.461Z,25.60
2022-08-01T16:43:25.780Z,25.60
2022-08-01T16:45:53.073Z,25.60
2022-08-01T16:48:20.442Z,25.60
2022-08-01T16:50:49.923Z,25.60
2022-08-01T16:53:22.044Z,25.50
2022-08-01T16:55:51.019Z,25.50
2022-08-01T16:58:27.768Z,25.50
2022-08-01T17:00:57.789Z,25.40
2022-08-01T17:03:51.134Z,25.30
2022-08-01T17:06:22.225Z,25.30
2022-08-01T17:08:50.363Z,25.20
2022-08-01T17:11:17.505Z,25.20
2022-08-01T17:13:45.443Z,25.20
2022-08-01T17:16:12.710Z,25.20
2022-08-01T17:18:40.208Z,25.20
2022-08-01T17:21:07.304Z,25.10
2022-08-01T17:23:35.907Z,25.10
2022-08-01T17:26:03.494Z,25.10
2022-08-01T17:28:30.768Z,25.10
2022-08-01T17:30:58.330Z,25.10
2022-08-01T17:33:44.568Z,25.00
2022-08-01T17:36:12.744Z,25.00
2022-08-01T17:38:39.912Z,25.00
2022-08-01T17:41:07.143Z,24.90
2022-08-01T17:43:34.379Z,24.80
2022-08-01T17:46:01.582Z,24.80
2022-08-01T17:48:29.621Z,24.80
2022-08-01T17:50:57.300Z,24.80
2022-08-01T17:53:24.747Z,24.70
2022-08-01T17:55:53.472Z,24.60
2022-08-01T17:58:49.788Z,24.60
2022-08-01T18:01:14.733Z,24.50
2022-08-01T18:03:42.281Z,24.50
2022-08-01T18:06:13.589Z,24.40
2022-08-01T18:08:41.969Z,24.40
2022-08-01T18:11:09.621Z,24.30
2022-08-01T18:13:40.480Z,24.30
2022-08-01T18:16:11.193Z,24.30
2022-08-01T18:18:39.515Z,24.20
2022-08-01T18:21:07.941Z,24.20
2022-08-01T18:23:35.925Z,24.10
2022-08-01T18:26:06.817Z,24.10
2022-08-01T18:28:41.771Z,24.10
2022-08-01T18:31:16.897Z,24.00
2022-08-01T18:33:45.270Z,24.00
2022-08-01T18:36:19.216Z,23.90
2022-08-01T18:39:00.564Z,23.80
2022-08-01T18:41:29.134Z,23.80
2022-08-01T18:44:05.398Z,23.80
2022-08-01T18:46:35.449Z,23.70
2022-08-01T18:49:02.900Z,23.60
2022-08-01T18:51:30.422Z,23.50
2022-08-01T18:53:57.916Z,23.40
2022-08-01T18:56:25.181Z,23.40
2022-08-01T18:58:54.631Z,23.30
2022-08-01T19:01:22.451Z,23.20
2022-08-01T19:03:49.830Z,23.20
2022-08-01T19:06:17.176Z,23.10
2022-08-01T19:08:46.045Z,23.00
2022-08-01T19:11:13.574Z,23.00
2022-08-01T19:13:40.986Z,22.90
2022-08-01T19:16:08.268Z,22.90
2022-08-01T19:18:35.616Z,22.90
2022-08-01T19:21:04.548Z,22.80
2022-08-01T19:23:50.394Z,22.70
2022-08-01T19:26:23.385Z,22.70
2022-08-01T19:28:55.896Z,22.70
2022-08-01T19:31:26.861Z,22.60
2022-08-01T19:33:55.919Z,22.60
2022-08-01T19:36:24.076Z,22.60
2022-08-01T19:38:51.259Z,22.50
2022-08-01T19:41:19.556Z,22.50
2022-08-01T19:43:48.097Z,22.40
2022-08-01T19:46:17.490Z,22.40
2022-08-01T19:48:51.556Z,22.30
2022-08-01T19:51:22.732Z,22.20
2022-08-01T19:54:05.106Z,22.20
2022-08-01T19:56:44.521Z,22.10
2022-08-01T19:59:20.468Z,22.00
2022-08-01T20:01:49.251Z,22.00
2022-08-01T20:04:17.380Z,21.90
2022-08-01T20:06:46.163Z,21.90
2022-08-01T20:09:14.045Z,21.80
2022-08-01T20:11:59.523Z,21.80
2022-08-01T20:14:27.830Z,21.70
2022-08-01T20:16:56.111Z,21.60
2022-08-01T20:19:26.405Z,21.50
2022-08-01T20:22:03.226Z,21.50
2022-08-01T20:24:49.840Z,21.40
